CXA800 ZGSZ-ZGGG
Flight info
| Callsign | CXA800 |
|---|---|
| Flight time | 0h 25m |
| Altitude | 6900 |
| Route | IDUMA1/15 IDUMA IDUMA9 |
| Aircraft | B38M/M-SDE1FGHILORVWXY/HB1 |
Departure
| Time | 2026-04-26 07:56 |
|---|---|
| Airport | Shenzhen Bao'an International Airport (ZGSZ) |
Arrival
| Time | 2026-04-26 08:21 |
|---|---|
| Airport | Guangzhou Baiyun International Airport (ZGGG) |
| Time | Latitude | Longitude | Altitude | Speed | Heading |
|---|---|---|---|---|---|
| 2026-04-26 07:48 | 22.62997 | 113.80490 | 18 ft | 0 kts | 334° |
| 2026-04-26 07:48 | 22.62998 | 113.80490 | 18 ft | 1 kts | 334° |
| 2026-04-26 07:48 | 22.63010 | 113.80483 | 20 ft | 3 kts | 334° |
| 2026-04-26 07:48 | 22.63037 | 113.80469 | 19 ft | 5 kts | 334° |
| 2026-04-26 07:49 | 22.63068 | 113.80437 | 18 ft | 7 kts | 287° |
| 2026-04-26 07:49 | 22.63060 | 113.80393 | 20 ft | 6 kts | 237° |
| 2026-04-26 07:49 | 22.63017 | 113.80327 | 18 ft | 17 kts | 240° |
| 2026-04-26 07:50 | 22.63018 | 113.80142 | 18 ft | 13 kts | 333° |
| 2026-04-26 07:50 | 22.63128 | 113.80084 | 18 ft | 22 kts | 333° |
| 2026-04-26 07:50 | 22.63275 | 113.80004 | 18 ft | 25 kts | 333° |
| 2026-04-26 07:50 | 22.63433 | 113.79918 | 18 ft | 26 kts | 333° |
| 2026-04-26 07:51 | 22.63552 | 113.79897 | 18 ft | 11 kts | 54° |
| 2026-04-26 07:51 | 22.63590 | 113.79993 | 18 ft | 19 kts | 65° |
| 2026-04-26 07:51 | 22.63662 | 113.80150 | 18 ft | 27 kts | 63° |
| 2026-04-26 07:51 | 22.63754 | 113.80344 | 18 ft | 30 kts | 62° |
| 2026-04-26 07:52 | 22.63850 | 113.80550 | 18 ft | 31 kts | 63° |
| 2026-04-26 07:52 | 22.63949 | 113.80764 | 18 ft | 25 kts | 63° |
| 2026-04-26 07:52 | 22.64024 | 113.80793 | 18 ft | 12 kts | 331° |
| 2026-04-26 07:52 | 22.64108 | 113.80746 | 18 ft | 16 kts | 333° |
| 2026-04-26 07:53 | 22.64223 | 113.80683 | 18 ft | 20 kts | 333° |
| 2026-04-26 07:53 | 22.64362 | 113.80606 | 18 ft | 27 kts | 333° |
| 2026-04-26 07:53 | 22.64544 | 113.80503 | 18 ft | 31 kts | 333° |
| 2026-04-26 07:53 | 22.64741 | 113.80397 | 18 ft | 32 kts | 333° |
| 2026-04-26 07:54 | 22.64944 | 113.80286 | 18 ft | 33 kts | 333° |
| 2026-04-26 07:54 | 22.65151 | 113.80171 | 18 ft | 22 kts | 333° |
| 2026-04-26 07:54 | 22.65223 | 113.80188 | 18 ft | 10 kts | 63° |
| 2026-04-26 07:54 | 22.65247 | 113.80264 | 18 ft | 12 kts | 65° |
| 2026-04-26 07:55 | 22.65231 | 113.80346 | 20 ft | 13 kts | 144° |
| 2026-04-26 07:55 | 22.65142 | 113.80392 | 18 ft | 14 kts | 155° |
| 2026-04-26 07:55 | 22.65082 | 113.80425 | 18 ft | 33 kts | 152° |
| 2026-04-26 07:55 | 22.64625 | 113.80679 | 18 ft | 112 kts | 153° |
| 2026-04-26 07:56 | 22.63723 | 113.81157 | 60 ft | 171 kts | 155° |
| 2026-04-26 07:56 | 22.62578 | 113.81807 | 454 ft | 196 kts | 152° |
| 2026-04-26 07:56 | 22.61412 | 113.82461 | 1459 ft | 181 kts | 154° |
| 2026-04-26 07:56 | 22.60255 | 113.83087 | 2190 ft | 196 kts | 154° |
| 2026-04-26 07:57 | 22.58971 | 113.83784 | 2696 ft | 217 kts | 154° |
| 2026-04-26 07:57 | 22.57555 | 113.84557 | 3168 ft | 239 kts | 153° |
| 2026-04-26 07:57 | 22.56033 | 113.85389 | 3825 ft | 246 kts | 153° |
| 2026-04-26 07:57 | 22.54500 | 113.86227 | 4680 ft | 248 kts | 153° |
| 2026-04-26 07:58 | 22.52948 | 113.87074 | 5456 ft | 251 kts | 154° |
| 2026-04-26 07:58 | 22.51535 | 113.88198 | 6238 ft | 257 kts | 131° |
| 2026-04-26 07:58 | 22.50700 | 113.89923 | 6440 ft | 262 kts | 103° |
| 2026-04-26 07:58 | 22.50734 | 113.91876 | 6517 ft | 263 kts | 74° |
| 2026-04-26 07:59 | 22.51489 | 113.93664 | 6686 ft | 266 kts | 63° |
| 2026-04-26 07:59 | 22.52325 | 113.95449 | 6830 ft | 266 kts | 64° |
| 2026-04-26 07:59 | 22.53163 | 113.97236 | 6901 ft | 267 kts | 63° |
| 2026-04-26 07:59 | 22.54005 | 113.99022 | 6902 ft | 267 kts | 63° |
| 2026-04-26 08:00 | 22.55020 | 114.00739 | 6882 ft | 278 kts | 44° |
| 2026-04-26 08:00 | 22.56668 | 114.01836 | 6888 ft | 281 kts | 16° |
| 2026-04-26 08:00 | 22.58605 | 114.02153 | 6917 ft | 286 kts | 4° |
| 2026-04-26 08:00 | 22.60594 | 114.02369 | 6878 ft | 287 kts | 5° |
| 2026-04-26 08:01 | 22.62584 | 114.02585 | 6897 ft | 287 kts | 4° |
| 2026-04-26 08:01 | 22.64551 | 114.02795 | 6897 ft | 287 kts | 5° |
| 2026-04-26 08:01 | 22.66546 | 114.03005 | 6899 ft | 287 kts | 5° |
| 2026-04-26 08:01 | 22.68584 | 114.03218 | 6881 ft | 303 kts | 5° |
| 2026-04-26 08:02 | 22.70741 | 114.03333 | 6863 ft | 318 kts | 352° |
| 2026-04-26 08:02 | 22.72900 | 114.02627 | 6867 ft | 332 kts | 336° |
| 2026-04-26 08:02 | 22.75094 | 114.01644 | 6849 ft | 350 kts | 336° |
| 2026-04-26 08:02 | 22.77399 | 114.00621 | 6839 ft | 366 kts | 336° |
| 2026-04-26 08:03 | 22.79798 | 113.99555 | 6857 ft | 376 kts | 337° |
| 2026-04-26 08:03 | 22.82235 | 113.98469 | 6867 ft | 381 kts | 337° |
| 2026-04-26 08:03 | 22.84698 | 113.97371 | 6886 ft | 383 kts | 337° |
| 2026-04-26 08:03 | 22.87158 | 113.96273 | 6877 ft | 383 kts | 337° |
| 2026-04-26 08:04 | 22.89615 | 113.95247 | 6872 ft | 383 kts | 344° |
| 2026-04-26 08:04 | 22.92258 | 113.94811 | 6897 ft | 384 kts | 352° |
| 2026-04-26 08:04 | 22.94911 | 113.94447 | 6877 ft | 384 kts | 352° |
| 2026-04-26 08:04 | 22.97561 | 113.94082 | 6880 ft | 384 kts | 352° |
| 2026-04-26 08:05 | 23.00211 | 113.93718 | 6882 ft | 384 kts | 352° |
| 2026-04-26 08:05 | 23.02865 | 113.93354 | 6883 ft | 384 kts | 352° |
| 2026-04-26 08:05 | 23.05514 | 113.92991 | 6877 ft | 384 kts | 352° |
| 2026-04-26 08:05 | 23.08172 | 113.92626 | 6888 ft | 384 kts | 352° |
| 2026-04-26 08:06 | 23.10829 | 113.92262 | 6875 ft | 384 kts | 352° |
| 2026-04-26 08:06 | 23.13478 | 113.91897 | 6879 ft | 384 kts | 352° |
| 2026-04-26 08:06 | 23.16139 | 113.91515 | 6870 ft | 385 kts | 348° |
| 2026-04-26 08:06 | 23.18611 | 113.90479 | 6866 ft | 382 kts | 325° |
| 2026-04-26 08:07 | 23.20460 | 113.88458 | 6878 ft | 379 kts | 301° |
| 2026-04-26 08:07 | 23.21418 | 113.85855 | 6882 ft | 377 kts | 279° |
| 2026-04-26 08:07 | 23.21598 | 113.83016 | 6886 ft | 377 kts | 271° |
| 2026-04-26 08:07 | 23.21695 | 113.80163 | 6879 ft | 377 kts | 271° |
| 2026-04-26 08:08 | 23.21801 | 113.77312 | 6882 ft | 377 kts | 272° |
| 2026-04-26 08:08 | 23.21909 | 113.74460 | 6873 ft | 377 kts | 272° |
| 2026-04-26 08:08 | 23.22019 | 113.71606 | 6868 ft | 377 kts | 271° |
| 2026-04-26 08:08 | 23.22128 | 113.68752 | 6869 ft | 378 kts | 271° |
| 2026-04-26 08:09 | 23.22238 | 113.65891 | 6874 ft | 378 kts | 272° |
| 2026-04-26 08:09 | 23.22346 | 113.63032 | 6873 ft | 378 kts | 272° |
| 2026-04-26 08:09 | 23.22453 | 113.60202 | 6877 ft | 371 kts | 272° |
| 2026-04-26 08:09 | 23.22557 | 113.57447 | 6874 ft | 369 kts | 271° |
| 2026-04-26 08:10 | 23.22660 | 113.54665 | 6877 ft | 368 kts | 272° |
| 2026-04-26 08:10 | 23.22764 | 113.51887 | 6864 ft | 368 kts | 271° |
| 2026-04-26 08:10 | 23.22868 | 113.49103 | 6865 ft | 368 kts | 272° |
| 2026-04-26 08:10 | 23.22971 | 113.46313 | 6865 ft | 368 kts | 271° |
| 2026-04-26 08:11 | 23.23037 | 113.43529 | 6865 ft | 368 kts | 266° |
| 2026-04-26 08:11 | 23.22403 | 113.40866 | 6856 ft | 364 kts | 243° |
| 2026-04-26 08:11 | 23.21452 | 113.39368 | 6860 ft | 364 kts | 227° |
| 2026-04-26 08:11 | 23.18629 | 113.37399 | 6861 ft | 364 kts | 198° |
| 2026-04-26 08:12 | 23.16198 | 113.36756 | 6874 ft | 363 kts | 194° |
| 2026-04-26 08:12 | 23.13746 | 113.36108 | 6861 ft | 363 kts | 194° |
| 2026-04-26 08:12 | 23.12086 | 113.35665 | 6834 ft | 362 kts | 194° |
| 2026-04-26 08:12 | 23.08902 | 113.34808 | 6521 ft | 350 kts | 195° |
| 2026-04-26 08:13 | 23.07346 | 113.34389 | 6353 ft | 344 kts | 195° |
| 2026-04-26 08:13 | 23.05047 | 113.33770 | 6097 ft | 336 kts | 195° |
| 2026-04-26 08:13 | 23.02804 | 113.33165 | 5825 ft | 329 kts | 195° |
| 2026-04-26 08:13 | 23.00763 | 113.32153 | 5535 ft | 322 kts | 218° |
| 2026-04-26 08:14 | 22.99347 | 113.30322 | 5262 ft | 315 kts | 240° |
| 2026-04-26 08:14 | 22.98737 | 113.28075 | 4991 ft | 311 kts | 269° |
| 2026-04-26 08:14 | 22.99232 | 113.25820 | 4722 ft | 308 kts | 297° |
| 2026-04-26 08:14 | 23.00579 | 113.24037 | 4463 ft | 305 kts | 320° |
| 2026-04-26 08:15 | 23.02361 | 113.22828 | 4188 ft | 302 kts | 337° |
| 2026-04-26 08:15 | 23.04376 | 113.22388 | 3909 ft | 299 kts | 360° |
| 2026-04-26 08:15 | 23.06424 | 113.22702 | 3667 ft | 295 kts | 12° |
| 2026-04-26 08:15 | 23.08390 | 113.23162 | 3558 ft | 280 kts | 12° |
| 2026-04-26 08:16 | 23.10230 | 113.23616 | 3202 ft | 265 kts | 13° |
| 2026-04-26 08:16 | 23.11987 | 113.24066 | 2809 ft | 253 kts | 14° |
| 2026-04-26 08:16 | 23.13659 | 113.24511 | 2443 ft | 242 kts | 14° |
| 2026-04-26 08:16 | 23.15258 | 113.24939 | 2145 ft | 230 kts | 14° |
| 2026-04-26 08:17 | 23.16729 | 113.25334 | 2098 ft | 202 kts | 14° |
| 2026-04-26 08:17 | 23.18003 | 113.25675 | 2010 ft | 178 kts | 14° |
| 2026-04-26 08:17 | 23.19236 | 113.26005 | 2010 ft | 186 kts | 14° |
| 2026-04-26 08:17 | 23.20518 | 113.26350 | 2021 ft | 192 kts | 14° |
| 2026-04-26 08:18 | 23.21821 | 113.26701 | 2010 ft | 194 kts | 13° |
| 2026-04-26 08:18 | 23.23138 | 113.27054 | 2017 ft | 195 kts | 14° |
| 2026-04-26 08:18 | 23.24451 | 113.27407 | 2008 ft | 195 kts | 14° |
| 2026-04-26 08:18 | 23.25752 | 113.27758 | 2004 ft | 194 kts | 14° |
| 2026-04-26 08:19 | 23.27062 | 113.28110 | 1925 ft | 194 kts | 14° |
| 2026-04-26 08:19 | 23.28368 | 113.28461 | 1688 ft | 192 kts | 14° |
| 2026-04-26 08:19 | 23.29665 | 113.28810 | 1462 ft | 192 kts | 14° |
| 2026-04-26 08:19 | 23.30966 | 113.29161 | 1227 ft | 192 kts | 14° |
| 2026-04-26 08:20 | 23.32253 | 113.29508 | 986 ft | 185 kts | 14° |
| 2026-04-26 08:20 | 23.33436 | 113.29826 | 806 ft | 166 kts | 14° |
| 2026-04-26 08:20 | 23.34513 | 113.30115 | 572 ft | 155 kts | 14° |
| 2026-04-26 08:20 | 23.35531 | 113.30387 | 370 ft | 156 kts | 14° |
| 2026-04-26 08:21 | 23.36578 | 113.30673 | 181 ft | 154 kts | 13° |
| 2026-04-26 08:21 | 23.37603 | 113.30945 | 61 ft | 144 kts | 13° |
| 2026-04-26 08:21 | 23.38349 | 113.31147 | 59 ft | 78 kts | 14° |
| 2026-04-26 08:21 | 23.38713 | 113.31244 | 53 ft | 42 kts | 14° |
| 2026-04-26 08:22 | 23.39006 | 113.31295 | 54 ft | 30 kts | 354° |
| 2026-04-26 08:22 | 23.39137 | 113.31268 | 59 ft | 19 kts | 344° |
| 2026-04-26 08:22 | 23.39270 | 113.31228 | 57 ft | 21 kts | 348° |
| 2026-04-26 08:22 | 23.39419 | 113.31233 | 57 ft | 22 kts | 17° |
| 2026-04-26 08:23 | 23.39574 | 113.31276 | 54 ft | 24 kts | 14° |
| 2026-04-26 08:23 | 23.39740 | 113.31320 | 58 ft | 20 kts | 8° |
| 2026-04-26 08:23 | 23.39821 | 113.31343 | 56 ft | 1 kts | 18° |
| 2026-04-26 08:23 | 23.39824 | 113.31343 | 57 ft | 2 kts | 17° |
| 2026-04-26 08:24 | 23.39894 | 113.31364 | 61 ft | 19 kts | 13° |
| 2026-04-26 08:24 | 23.40054 | 113.31406 | 56 ft | 28 kts | 14° |
| 2026-04-26 08:24 | 23.40239 | 113.31456 | 59 ft | 25 kts | 14° |
| 2026-04-26 08:24 | 23.40327 | 113.31432 | 56 ft | 9 kts | 283° |
| 2026-04-26 08:25 | 23.40330 | 113.31417 | 61 ft | 0 kts | 283° |
| 2026-04-26 08:25 | 23.40331 | 113.31413 | 56 ft | 3 kts | 283° |
| 2026-04-26 08:25 | 23.40349 | 113.31332 | 53 ft | 20 kts | 283° |
| 2026-04-26 08:25 | 23.40382 | 113.31190 | 60 ft | 3 kts | 284° |
| 2026-04-26 08:26 | 23.40389 | 113.31160 | 61 ft | 5 kts | 284° |
| 2026-04-26 08:26 | 23.40402 | 113.31105 | 61 ft | 12 kts | 284° |
| 2026-04-26 08:26 | 23.40431 | 113.30973 | 58 ft | 24 kts | 284° |
| 2026-04-26 08:26 | 23.40474 | 113.30785 | 61 ft | 27 kts | 284° |
| 2026-04-26 08:27 | 23.40520 | 113.30581 | 56 ft | 22 kts | 283° |
| 2026-04-26 08:27 | 23.40509 | 113.30494 | 57 ft | 13 kts | 204° |
| 2026-04-26 08:27 | 23.40427 | 113.30446 | 61 ft | 15 kts | 227° |
| 2026-04-26 08:27 | 23.40351 | 113.30361 | 57 ft | 17 kts | 226° |
| 2026-04-26 08:28 | 23.40249 | 113.30318 | 61 ft | 18 kts | 172° |
| 2026-04-26 08:28 | 23.40166 | 113.30301 | 57 ft | 8 kts | 194° |
| 2026-04-26 08:28 | 23.40136 | 113.30292 | 57 ft | 0 kts | 194° |